createdAt,value
2022-12-15T00:00:41.682Z,2.10
2022-12-15T00:06:02.819Z,2.21
2022-12-15T00:11:24.157Z,2.80
2022-12-15T00:16:46.222Z,3.12
2022-12-15T00:22:07.320Z,2.98
2022-12-15T00:27:28.041Z,2.95
2022-12-15T00:32:49.260Z,2.92
2022-12-15T00:38:10.587Z,2.72
2022-12-15T00:43:13.088Z,2.88
2022-12-15T00:48:16.304Z,2.82
2022-12-15T00:53:38.855Z,2.93
2022-12-15T00:59:00.253Z,3.10
2022-12-15T01:04:21.560Z,3.03
2022-12-15T01:09:42.651Z,2.96
2022-12-15T01:15:04.120Z,2.85
2022-12-15T01:20:19.835Z,2.81
2022-12-15T01:25:24.529Z,2.81
2022-12-15T01:30:27.967Z,2.63
2022-12-15T01:35:30.377Z,2.59
2022-12-15T01:40:45.428Z,2.98
2022-12-15T01:45:50.318Z,2.86
2022-12-15T01:50:58.220Z,2.78
2022-12-15T01:56:01.326Z,3.26
2022-12-15T02:01:04.224Z,2.95
2022-12-15T02:06:08.257Z,2.81
2022-12-15T02:11:10.731Z,2.73
2022-12-15T02:16:27.949Z,2.94
2022-12-15T02:21:38.716Z,2.72
2022-12-15T02:27:03.980Z,2.62
2022-12-15T02:32:15.371Z,2.86
2022-12-15T02:37:20.834Z,2.80
2022-12-15T02:42:25.574Z,2.68
2022-12-15T02:47:49.943Z,3.06
2022-12-15T02:53:31.663Z,3.20
2022-12-15T02:58:58.935Z,2.87
2022-12-15T03:04:04.589Z,2.64
2022-12-15T03:09:07.087Z,2.73
2022-12-15T03:14:09.509Z,2.65
2022-12-15T03:19:12.022Z,2.69
2022-12-15T03:24:14.907Z,2.48
2022-12-15T03:29:18.239Z,2.97
2022-12-15T03:34:20.764Z,2.87
2022-12-15T03:39:23.220Z,2.68
2022-12-15T03:44:25.909Z,2.72
2022-12-15T03:49:28.327Z,2.69
2022-12-15T03:54:30.929Z,2.60
2022-12-15T03:59:33.355Z,2.35
2022-12-15T04:04:35.731Z,2.54
2022-12-15T04:09:38.336Z,2.55
2022-12-15T04:14:42.660Z,2.39
2022-12-15T04:20:04.076Z,2.89
2022-12-15T04:25:27.515Z,3.09
2022-12-15T04:30:50.354Z,2.69
2022-12-15T04:36:12.187Z,2.92
2022-12-15T04:41:34.278Z,3.11
2022-12-15T04:46:55.471Z,3.12
2022-12-15T04:52:17.431Z,3.10
2022-12-15T04:57:38.609Z,3.27
2022-12-15T05:02:59.922Z,3.21
2022-12-15T05:08:21.135Z,3.10
2022-12-15T05:13:42.176Z,3.32
2022-12-15T05:19:03.303Z,3.16
2022-12-15T05:24:24.425Z,3.25
2022-12-15T05:29:45.554Z,3.16
2022-12-15T05:34:48.321Z,3.14
2022-12-15T05:39:50.750Z,3.06
2022-12-15T05:44:53.498Z,3.17
2022-12-15T05:49:55.933Z,3.36
2022-12-15T05:54:58.294Z,3.52
2022-12-15T06:00:00.719Z,3.16
2022-12-15T06:05:03.694Z,3.20
2022-12-15T06:10:06.951Z,3.43
2022-12-15T06:15:09.730Z,3.54
2022-12-15T06:20:12.423Z,3.42
2022-12-15T06:25:15.129Z,3.01
2022-12-15T06:30:19.169Z,3.26
2022-12-15T06:35:21.551Z,3.32
2022-12-15T06:40:23.983Z,3.44
2022-12-15T06:45:26.612Z,3.39
2022-12-15T06:50:29.209Z,3.61
2022-12-15T06:55:31.612Z,3.69
2022-12-15T07:00:36.785Z,3.60
2022-12-15T07:05:39.217Z,3.81
2022-12-15T07:10:44.228Z,3.75
2022-12-15T07:15:48.903Z,3.89
2022-12-15T07:20:51.289Z,3.80
2022-12-15T07:25:53.712Z,3.83
2022-12-15T07:30:56.221Z,3.91
2022-12-15T07:35:58.898Z,3.92
2022-12-15T07:41:03.742Z,4.02
2022-12-15T07:46:06.705Z,4.00
2022-12-15T07:51:17.131Z,3.83
2022-12-15T07:56:21.944Z,4.05
2022-12-15T08:01:24.972Z,4.11
2022-12-15T08:06:27.518Z,4.19
2022-12-15T08:11:34.587Z,4.26
2022-12-15T08:16:37.693Z,4.40
2022-12-15T08:21:42.147Z,4.31
2022-12-15T08:26:49.962Z,4.03
2022-12-15T08:31:53.738Z,4.15
2022-12-15T08:36:56.235Z,4.31
2022-12-15T08:41:58.625Z,4.31
2022-12-15T08:47:01.132Z,4.43
2022-12-15T08:52:03.523Z,4.17
2022-12-15T08:57:06.323Z,4.34
2022-12-15T09:02:12.289Z,4.26
2022-12-15T09:07:14.997Z,4.43
2022-12-15T09:12:17.643Z,4.52
2022-12-15T09:17:20.211Z,4.40
2022-12-15T09:22:22.817Z,4.35
2022-12-15T09:27:25.262Z,4.55
2022-12-15T09:32:27.853Z,4.81
2022-12-15T09:37:32.587Z,4.75
2022-12-15T09:42:35.573Z,4.74
2022-12-15T09:47:50.097Z,4.84
2022-12-15T09:52:54.830Z,4.73
2022-12-15T09:58:06.007Z,4.83
2022-12-15T10:03:31.277Z,4.77
2022-12-15T10:08:37.100Z,4.80
2022-12-15T10:13:58.058Z,5.07
2022-12-15T10:19:13.419Z,4.65
2022-12-15T10:24:59.887Z,4.65
2022-12-15T10:35:30.144Z,5.03
2022-12-15T10:40:55.203Z,5.18
2022-12-15T10:46:14.424Z,4.89
2022-12-15T10:51:32.626Z,4.80
2022-12-15T10:56:35.908Z,4.71
2022-12-15T11:01:38.579Z,4.81
2022-12-15T11:06:43.302Z,4.87
2022-12-15T11:12:12.063Z,5.07
2022-12-15T11:17:40.784Z,5.09
2022-12-15T11:23:08.752Z,4.97
2022-12-15T11:28:22.257Z,5.07
2022-12-15T11:33:24.699Z,4.97
2022-12-15T11:38:46.290Z,4.99
2022-12-15T11:44:16.064Z,5.13
2022-12-15T11:49:46.332Z,5.15
2022-12-15T11:54:58.337Z,5.34
2022-12-15T12:00:11.875Z,5.13
2022-12-15T12:05:28.846Z,5.26
2022-12-15T12:11:21.217Z,5.49
2022-12-15T12:16:47.058Z,5.43
2022-12-15T12:21:56.335Z,5.33
2022-12-15T12:27:18.806Z,5.54
2022-12-15T12:32:50.827Z,5.43
2022-12-15T12:38:03.944Z,5.70
2022-12-15T12:43:14.112Z,5.50
2022-12-15T12:48:42.390Z,5.66
2022-12-15T12:53:45.109Z,5.76
2022-12-15T12:58:48.545Z,5.82
2022-12-15T13:04:14.295Z,5.49
2022-12-15T13:09:19.510Z,5.57
2022-12-15T13:14:40.070Z,5.58
2022-12-15T13:19:57.495Z,5.24
2022-12-15T13:25:00.523Z,5.09
2022-12-15T13:30:09.083Z,5.22
2022-12-15T13:35:14.646Z,5.36
2022-12-15T13:40:38.146Z,5.35
2022-12-15T13:45:56.008Z,5.26
2022-12-15T13:51:18.623Z,5.20
2022-12-15T13:56:50.741Z,5.11
2022-12-15T14:01:54.374Z,5.21
2022-12-15T14:07:01.202Z,5.11
2022-12-15T14:12:06.004Z,5.18
2022-12-15T14:17:12.219Z,5.11
2022-12-15T14:22:28.512Z,5.31
2022-12-15T14:27:33.504Z,5.35
2022-12-15T14:32:36.632Z,5.28
2022-12-15T14:37:39.786Z,5.23
2022-12-15T14:42:43.990Z,5.19
2022-12-15T14:48:21.507Z,5.30
2022-12-15T14:53:22.146Z,5.18
2022-12-15T14:58:30.775Z,5.20
2022-12-15T15:03:03.980Z,4.63
2022-12-15T15:03:39.382Z,5.22
2022-12-15T15:08:52.945Z,5.12
2022-12-15T15:13:58.416Z,4.99
2022-12-15T15:19:04.460Z,4.93
2022-12-15T15:24:12.997Z,4.91
2022-12-15T15:29:41.182Z,4.92
2022-12-15T15:34:45.129Z,4.94
2022-12-15T15:39:52.776Z,4.86
2022-12-15T15:44:55.151Z,5.02
2022-12-15T15:49:59.842Z,4.93
2022-12-15T15:55:02.277Z,5.00
2022-12-15T16:00:16.281Z,5.20
2022-12-15T16:05:18.953Z,5.07
2022-12-15T16:10:21.685Z,5.12
2022-12-15T16:15:26.426Z,5.14
2022-12-15T16:20:30.317Z,5.17
2022-12-15T16:25:42.415Z,5.08
2022-12-15T16:30:50.598Z,5.10
2022-12-15T16:35:53.937Z,5.14
2022-12-15T16:40:58.374Z,5.23
2022-12-15T16:46:01.508Z,5.41
2022-12-15T16:51:07.785Z,5.43
2022-12-15T16:56:15.994Z,5.21
2022-12-15T17:01:18.709Z,5.20
2022-12-15T17:06:21.180Z,5.22
2022-12-15T17:11:27.310Z,5.09
2022-12-15T17:16:30.547Z,5.18
2022-12-15T17:21:55.182Z,5.18
2022-12-15T17:26:57.809Z,5.16
2022-12-15T17:32:00.319Z,5.11
2022-12-15T17:37:06.317Z,5.23
2022-12-15T17:42:20.317Z,5.27
2022-12-15T17:47:24.281Z,4.99
2022-12-15T17:52:34.837Z,5.04
2022-12-15T17:57:37.386Z,5.06
2022-12-15T18:02:40.011Z,5.22
2022-12-15T18:07:42.902Z,5.16
2022-12-15T18:12:45.492Z,5.17
2022-12-15T18:17:48.286Z,5.38
2022-12-15T18:22:51.691Z,5.32
2022-12-15T18:27:55.604Z,5.23
2022-12-15T18:32:59.510Z,5.15
2022-12-15T18:38:14.038Z,5.25
2022-12-15T18:43:20.758Z,5.11
2022-12-15T18:48:28.922Z,4.94
2022-12-15T18:53:35.062Z,4.91
2022-12-15T18:58:42.413Z,4.93
2022-12-15T19:03:44.944Z,4.98
2022-12-15T19:08:48.810Z,4.96
2022-12-15T19:13:53.988Z,4.91
2022-12-15T19:19:17.415Z,4.85
2022-12-15T19:24:46.169Z,4.69
2022-12-15T19:29:50.749Z,4.75
2022-12-15T19:34:53.159Z,4.93
2022-12-15T19:39:57.869Z,4.80
2022-12-15T19:45:03.889Z,4.72
2022-12-15T19:50:06.741Z,4.78
2022-12-15T19:55:15.807Z,4.73
2022-12-15T20:00:27.418Z,4.75
2022-12-15T20:05:29.945Z,4.67
2022-12-15T20:10:32.866Z,4.64
2022-12-15T20:15:35.383Z,4.61
2022-12-15T20:20:41.874Z,4.43
2022-12-15T20:25:45.198Z,4.67
2022-12-15T20:30:49.404Z,4.61
2022-12-15T20:35:52.205Z,4.64
2022-12-15T20:40:55.544Z,4.67
2022-12-15T20:46:26.632Z,4.82
2022-12-15T20:51:32.493Z,4.68
2022-12-15T20:56:34.995Z,4.54
2022-12-15T21:01:41.605Z,4.46
2022-12-15T21:06:44.621Z,4.33
2022-12-15T21:11:51.797Z,4.43
2022-12-15T21:16:54.403Z,4.37
2022-12-15T21:21:56.969Z,4.34
2022-12-15T21:27:01.584Z,4.50
2022-12-15T21:32:04.059Z,4.34
2022-12-15T21:37:23.221Z,4.34
2022-12-15T21:42:26.615Z,4.29
2022-12-15T21:47:52.107Z,4.28
2022-12-15T21:52:54.930Z,4.34
2022-12-15T21:57:58.227Z,4.03
2022-12-15T22:03:01.165Z,4.17
2022-12-15T22:08:22.216Z,3.95
2022-12-15T22:13:24.837Z,4.00
2022-12-15T22:18:27.348Z,4.06
2022-12-15T22:23:30.079Z,3.43
2022-12-15T22:28:33.877Z,3.88
2022-12-15T22:33:36.697Z,4.07
2022-12-15T22:38:39.124Z,4.05
2022-12-15T22:43:44.063Z,3.92
2022-12-15T22:48:47.719Z,3.88
2022-12-15T22:53:50.273Z,3.84
2022-12-15T22:58:59.914Z,3.79
2022-12-15T23:04:02.774Z,3.75
2022-12-15T23:09:05.379Z,3.80
2022-12-15T23:14:11.459Z,3.83
2022-12-15T23:19:24.043Z,3.49
2022-12-15T23:24:27.348Z,5.03
2022-12-15T23:29:29.834Z,6.25
2022-12-15T23:34:32.266Z,6.06
2022-12-15T23:39:34.697Z,4.70
2022-12-15T23:44:37.469Z,4.10
2022-12-15T23:49:40.054Z,3.77
2022-12-15T23:54:42.429Z,3.58
2022-12-15T23:59:44.907Z,3.46
